Time;durP1;ratioP1;P1;durP2;ratioP2;P2;SDS_P1;SDS_P2;PMS_P1;PMS_P2;Temp;Humidity;BMP_temperature;BMP_pressure;BME280_temperature;BME280_humidity;BME280_pressure;Samples;Min_cycle;Max_cycle;Signal;HPM_P1;HPM_P2
2022/07/19 00:01:53;;;;;;;1.60;1.50;;;26.00;65.90;;;;;;5096034;28;20511;-84
2022/07/19 00:04:19;;;;;;;1.60;1.50;;;26.00;65.60;;;;;;5096556;28;20454;-83
2022/07/19 00:06:46;;;;;;;1.60;1.50;;;26.00;65.60;;;;;;5096183;28;20475;-88
2022/07/19 00:09:13;;;;;;;1.63;1.53;;;26.00;65.70;;;;;;5096080;28;20461;-86
2022/07/19 00:11:40;;;;;;;1.93;1.73;;;26.00;65.70;;;;;;5095818;28;20487;-85
2022/07/19 00:14:07;;;;;;;2.10;1.60;;;26.00;65.70;;;;;;5096114;28;20527;-84
2022/07/19 00:16:35;;;;;;;1.87;1.77;;;26.00;65.70;;;;;;5095978;28;20436;-84
2022/07/19 00:19:02;;;;;;;1.73;1.57;;;26.00;65.80;;;;;;5095897;28;20438;-84
2022/07/19 00:21:28;;;;;;;1.63;1.53;;;26.00;65.80;;;;;;5096030;28;20442;-85
2022/07/19 00:23:55;;;;;;;1.67;1.57;;;26.00;65.80;;;;;;5095890;28;20527;-83
2022/07/19 00:26:22;;;;;;;1.67;1.40;;;26.00;65.90;;;;;;5094718;28;20566;-84
2022/07/19 00:28:49;;;;;;;1.57;1.47;;;26.00;66.80;;;;;;5095552;28;20851;-88
2022/07/19 00:31:16;;;;;;;2.00;1.90;;;26.00;66.00;;;;;;5095700;28;20446;-85
2022/07/19 00:33:44;;;;;;;1.70;1.60;;;26.00;66.00;;;;;;5095691;28;20439;-84
2022/07/19 00:36:11;;;;;;;1.50;1.40;;;26.00;66.10;;;;;;5095622;28;20435;-84
2022/07/19 00:38:37;;;;;;;1.60;1.30;;;26.00;66.10;;;;;;5095768;28;20786;-85
2022/07/19 00:41:04;;;;;;;1.70;1.60;;;26.00;66.10;;;;;;5095454;28;20440;-83
2022/07/19 00:43:31;;;;;;;1.50;1.40;;;26.00;66.10;;;;;;5095469;28;20463;-84
2022/07/19 00:45:58;;;;;;;1.97;1.87;;;26.00;66.20;;;;;;5095330;28;20463;-84
2022/07/19 00:48:25;;;;;;;1.53;1.30;;;26.00;66.20;;;;;;5095241;28;21002;-84
2022/07/19 00:50:53;;;;;;;1.57;1.20;;;26.00;66.20;;;;;;5095413;28;20505;-84
2022/07/19 00:53:22;;;;;;;1.60;1.50;;;26.00;66.20;;;;;;5095352;28;20802;-84
2022/07/19 00:55:49;;;;;;;1.70;1.60;;;26.00;66.50;;;;;;5095177;28;20945;-84
2022/07/19 00:58:18;;;;;;;1.80;1.70;;;26.00;66.30;;;;;;5095229;28;20454;-84
2022/07/19 01:00:45;;;;;;;1.90;1.80;;;26.00;66.30;;;;;;5095119;28;20926;-88
2022/07/19 01:03:13;;;;;;;1.57;1.47;;;26.00;66.40;;;;;;5095101;28;20514;-84
2022/07/19 01:05:40;;;;;;;2.10;1.90;;;26.00;67.30;;;;;;5095059;28;20443;-84
2022/07/19 01:08:08;;;;;;;1.83;1.73;;;26.00;66.50;;;;;;5095019;28;20479;-84
2022/07/19 01:10:35;;;;;;;1.90;1.50;;;26.00;66.50;;;;;;5094734;28;20539;-84
2022/07/19 01:13:02;;;;;;;1.93;1.83;;;26.00;66.50;;;;;;5094813;28;20440;-83
2022/07/19 01:15:29;;;;;;;1.77;1.67;;;26.00;66.60;;;;;;5094778;28;20551;-84
2022/07/19 01:17:56;;;;;;;1.70;1.60;;;26.00;66.60;;;;;;5094937;28;20446;-84
2022/07/19 01:20:25;;;;;;;3.20;1.80;;;26.00;66.60;;;;;;5094706;28;20527;-84
2022/07/19 01:22:53;;;;;;;1.60;1.50;;;26.00;66.60;;;;;;5094508;28;20509;-83
2022/07/19 01:25:23;;;;;;;1.67;1.57;;;26.00;66.70;;;;;;5094754;28;20436;-84
2022/07/19 01:27:50;;;;;;;1.50;1.33;;;26.00;66.70;;;;;;5094388;28;20517;-83
2022/07/19 01:30:19;;;;;;;1.57;1.47;;;26.00;66.70;;;;;;5094509;28;20514;-84
2022/07/19 01:32:46;;;;;;;1.70;1.60;;;26.00;66.70;;;;;;5094796;28;20536;-84
2022/07/19 01:35:14;;;;;;;1.60;1.40;;;26.00;66.70;;;;;;5094350;28;20446;-84
2022/07/19 01:37:41;;;;;;;1.40;1.30;;;26.00;66.80;;;;;;5094156;28;20438;-84
2022/07/19 01:40:11;;;;;;;1.87;1.70;;;26.00;66.80;;;;;;5094503;28;20439;-84
2022/07/19 01:42:38;;;;;;;1.80;1.70;;;26.00;66.80;;;;;;5094378;28;20445;-84
2022/07/19 01:45:07;;;;;;;1.80;1.70;;;26.00;66.80;;;;;;5094285;28;20470;-84
2022/07/19 01:47:34;;;;;;;1.97;1.60;;;26.00;66.90;;;;;;5094224;28;20492;-83
2022/07/19 01:50:01;;;;;;;1.80;1.70;;;26.00;66.90;;;;;;5093991;28;20439;-84
2022/07/19 01:52:28;;;;;;;2.60;1.77;;;26.00;67.00;;;;;;5093959;28;21001;-84
2022/07/19 01:54:55;;;;;;;1.57;1.47;;;26.00;66.90;;;;;;5094137;28;20440;-84
2022/07/19 01:57:23;;;;;;;1.60;1.50;;;26.00;67.00;;;;;;5093937;28;20442;-84
2022/07/19 01:59:50;;;;;;;2.07;1.97;;;26.00;67.00;;;;;;5094053;28;20432;-84
2022/07/19 02:02:17;;;;;;;1.90;1.80;;;26.00;67.00;;;;;;5093941;28;20480;-84
2022/07/19 02:04:43;;;;;;;1.90;1.80;;;26.00;67.00;;;;;;5094097;28;20436;-84
2022/07/19 02:07:10;;;;;;;1.53;1.43;;;26.00;67.10;;;;;;5093949;28;21104;-83
2022/07/19 02:09:37;;;;;;;1.80;1.70;;;26.00;67.00;;;;;;5093858;28;20440;-85
2022/07/19 02:12:04;;;;;;;1.60;1.50;;;26.00;67.10;;;;;;5093871;28;20431;-84
2022/07/19 02:14:32;;;;;;;1.63;1.50;;;26.00;67.10;;;;;;5093856;28;20787;-83
2022/07/19 02:16:59;;;;;;;1.57;1.47;;;26.00;67.10;;;;;;5093780;28;20436;-84
2022/07/19 02:19:26;;;;;;;1.93;1.83;;;26.00;67.20;;;;;;5093673;28;20527;-83
2022/07/19 02:21:53;;;;;;;2.30;2.10;;;26.00;67.20;;;;;;5093500;28;20453;-84
2022/07/19 02:24:19;;;;;;;1.77;1.67;;;26.00;67.20;;;;;;5093619;28;20439;-83
2022/07/19 02:26:46;;;;;;;1.70;1.60;;;26.00;67.20;;;;;;5093626;28;20444;-84
2022/07/19 02:29:13;;;;;;;1.83;1.53;;;26.00;67.20;;;;;;5093711;28;20531;-84
2022/07/19 02:31:41;;;;;;;1.97;1.87;;;26.00;67.20;;;;;;5093551;28;20531;-84
2022/07/19 02:34:08;;;;;;;2.03;1.93;;;26.00;67.20;;;;;;5093464;28;20447;-84
2022/07/19 02:36:35;;;;;;;1.70;1.60;;;26.00;67.20;;;;;;5093689;28;20432;-84
2022/07/19 02:39:02;;;;;;;1.63;1.53;;;26.00;67.20;;;;;;5093675;28;20545;-84
2022/07/19 02:41:29;;;;;;;1.70;1.60;;;26.00;67.30;;;;;;5093525;28;20439;-84
2022/07/19 02:43:55;;;;;;;2.23;1.97;;;26.00;67.30;;;;;;5093412;28;20985;-84
2022/07/19 02:46:22;;;;;;;2.00;1.87;;;26.00;67.40;;;;;;5092813;28;20814;-83
2022/07/19 02:48:50;;;;;;;1.90;1.80;;;26.00;67.50;;;;;;5093574;28;20490;-84
2022/07/19 02:51:17;;;;;;;1.77;1.67;;;26.00;67.50;;;;;;5097308;28;20562;-85
2022/07/19 02:53:44;;;;;;;1.97;1.60;;;26.00;67.50;;;;;;5097736;28;20424;-84
2022/07/19 02:56:11;;;;;;;1.70;1.60;;;26.00;67.70;;;;;;5097595;28;20526;-84
2022/07/19 02:58:38;;;;;;;1.67;1.50;;;26.00;67.70;;;;;;5097475;28;20486;-84
2022/07/19 03:01:05;;;;;;;1.97;1.77;;;26.00;67.70;;;;;;5097269;28;20440;-84
2022/07/19 03:03:47;;;;;;;2.00;1.80;;;26.00;67.70;;;;;;5097560;28;20467;-84
2022/07/19 03:06:17;;;;;;;1.57;1.47;;;26.00;67.70;;;;;;5097470;28;20466;-84
2022/07/19 03:08:44;;;;;;;1.90;1.80;;;26.00;67.80;;;;;;5097274;28;20483;-84
2022/07/19 03:11:11;;;;;;;1.80;1.70;;;26.00;67.80;;;;;;5096974;28;20436;-83
2022/07/19 03:13:38;;;;;;;1.90;1.80;;;26.00;67.80;;;;;;5097363;28;20953;-84
2022/07/19 03:16:05;;;;;;;1.97;1.70;;;26.00;67.70;;;;;;5096941;28;20509;-84
2022/07/19 03:18:32;;;;;;;1.80;1.70;;;26.00;67.80;;;;;;5097119;28;20439;-84
2022/07/19 03:20:59;;;;;;;1.90;1.80;;;26.00;67.70;;;;;;5097017;28;20456;-84
2022/07/19 03:23:28;;;;;;;1.60;1.50;;;26.00;67.70;;;;;;5096994;28;20797;-84
2022/07/19 03:25:55;;;;;;;1.80;1.70;;;26.00;67.70;;;;;;5096978;28;20431;-84
2022/07/19 03:28:21;;;;;;;1.87;1.77;;;26.10;67.80;;;;;;5097076;28;20488;-84
2022/07/19 03:30:48;;;;;;;1.90;1.80;;;25.90;67.60;;;;;;5097009;28;20440;-84
2022/07/19 03:33:15;;;;;;;1.50;1.40;;;26.00;67.60;;;;;;5097033;28;20919;-85
2022/07/19 03:35:44;;;;;;;1.60;1.50;;;26.00;67.60;;;;;;5096963;28;20432;-84
2022/07/19 03:38:11;;;;;;;1.70;1.60;;;26.00;67.60;;;;;;5096454;28;20436;-84
2022/07/19 03:40:39;;;;;;;1.60;1.50;;;26.00;67.60;;;;;;5096706;28;20447;-84
2022/07/19 03:43:06;;;;;;;1.80;1.70;;;26.00;67.60;;;;;;5096471;28;20435;-84
2022/07/19 03:45:33;;;;;;;1.73;1.63;;;25.90;67.60;;;;;;5096329;28;20821;-84
2022/07/19 03:48:01;;;;;;;2.00;1.50;;;26.00;67.70;;;;;;5096251;28;20479;-84
2022/07/19 03:50:28;;;;;;;1.60;1.50;;;26.00;67.70;;;;;;5096376;28;20440;-84
2022/07/19 03:52:54;;;;;;;2.07;1.87;;;26.00;67.60;;;;;;5096420;28;20467;-84
2022/07/19 03:55:21;;;;;;;2.00;1.90;;;26.00;67.60;;;;;;5096216;28;20531;-84
2022/07/19 03:57:50;;;;;;;1.63;1.53;;;26.00;67.70;;;;;;5096247;28;20482;-84
2022/07/19 04:00:17;;;;;;;2.07;1.90;;;26.00;68.50;;;;;;5095982;28;20889;-84
2022/07/19 04:02:44;;;;;;;2.23;2.10;;;26.00;67.70;;;;;;5096062;28;20448;-84
2022/07/19 04:05:11;;;;;;;1.73;1.63;;;26.00;67.70;;;;;;5096282;28;20436;-84
2022/07/19 04:07:38;;;;;;;2.17;1.97;;;26.00;67.70;;;;;;5095804;28;20591;-84
2022/07/19 04:10:06;;;;;;;1.60;1.50;;;26.00;67.60;;;;;;5096365;28;20442;-84
2022/07/19 04:12:33;;;;;;;1.60;1.50;;;26.00;67.60;;;;;;5096168;28;20526;-84
2022/07/19 04:15:01;;;;;;;1.83;1.73;;;25.90;68.50;;;;;;5096057;28;20954;-84
2022/07/19 04:17:28;;;;;;;1.40;1.30;;;26.00;67.80;;;;;;5096075;28;20788;-83
2022/07/19 04:19:55;;;;;;;2.17;2.07;;;25.90;67.40;;;;;;5096158;28;20527;-84
2022/07/19 04:22:23;;;;;;;1.73;1.63;;;26.00;67.20;;;;;;5095568;28;20440;-82
2022/07/19 04:24:51;;;;;;;2.10;1.90;;;26.00;67.30;;;;;;5095628;28;20432;-82
2022/07/19 04:27:18;;;;;;;1.83;1.73;;;25.90;67.20;;;;;;5095495;28;20436;-83
2022/07/19 04:29:44;;;;;;;1.73;1.63;;;25.90;67.10;;;;;;5095870;28;20440;-84
2022/07/19 04:32:13;;;;;;;2.10;1.90;;;25.90;67.30;;;;;;5095825;28;20466;-85
2022/07/19 04:34:39;;;;;;;2.43;2.13;;;25.90;67.20;;;;;;5095840;28;20556;-84
2022/07/19 04:37:06;;;;;;;1.73;1.63;;;26.00;67.70;;;;;;5095684;28;20440;-84
2022/07/19 04:39:33;;;;;;;2.67;2.43;;;26.00;67.90;;;;;;5095294;28;20945;-84
2022/07/19 04:42:00;;;;;;;2.67;2.20;;;26.00;68.30;;;;;;5095557;28;20828;-84
2022/07/19 04:44:27;;;;;;;3.63;2.57;;;25.90;68.80;;;;;;5095288;28;20452;-84
2022/07/19 04:46:53;;;;;;;3.17;2.53;;;25.90;68.90;;;;;;5075190;28;20431;-84
2022/07/19 04:49:22;;;;;;;2.47;1.90;;;25.90;68.90;;;;;;5087141;28;20834;-84
2022/07/19 04:51:48;;;;;;;1.97;1.83;;;25.90;68.70;;;;;;5094319;28;20475;-84
2022/07/19 04:54:15;;;;;;;1.90;1.80;;;25.90;68.30;;;;;;5095467;28;20813;-84
2022/07/19 04:56:42;;;;;;;2.13;1.80;;;25.90;68.30;;;;;;5095332;28;20432;-84
2022/07/19 04:59:09;;;;;;;4.40;1.83;;;26.00;68.30;;;;;;5095308;28;20442;-84
2022/07/19 05:01:36;;;;;;;2.10;1.77;;;25.90;68.30;;;;;;5094726;28;20466;-84
2022/07/19 05:04:03;;;;;;;2.80;2.30;;;25.90;68.10;;;;;;5095367;28;20428;-85
2022/07/19 05:06:31;;;;;;;1.70;1.60;;;25.90;68.20;;;;;;5094930;28;20444;-84
2022/07/19 05:08:58;;;;;;;2.20;2.00;;;25.90;68.00;;;;;;5094420;28;20486;-84
2022/07/19 05:11:25;;;;;;;5.80;3.47;;;25.90;68.00;;;;;;5094066;28;20451;-84
2022/07/19 05:13:51;;;;;;;4.20;3.00;;;25.90;69.50;;;;;;5094039;28;20439;-85
2022/07/19 05:16:18;;;;;;;4.30;3.33;;;25.90;70.50;;;;;;5094705;28;20455;-85
2022/07/19 05:18:45;;;;;;;3.47;3.17;;;25.90;70.80;;;;;;5094531;28;20947;-90
2022/07/19 05:21:12;;;;;;;7.23;3.53;;;25.90;70.80;;;;;;5094571;28;20436;-84
2022/07/19 05:23:42;;;;;;;3.90;2.33;;;25.90;70.60;;;;;;5095013;28;20444;-85
2022/07/19 05:26:09;;;;;;;2.90;2.70;;;25.90;71.00;;;;;;5094171;28;20448;-84
2022/07/19 05:28:36;;;;;;;2.60;2.40;;;25.90;69.80;;;;;;5094015;28;20906;-83
2022/07/19 05:31:03;;;;;;;3.70;2.43;;;25.90;69.30;;;;;;5094559;28;20445;-85
2022/07/19 05:33:30;;;;;;;5.63;2.63;;;25.90;68.90;;;;;;5094654;28;20526;-85
2022/07/19 05:35:57;;;;;;;2.93;2.73;;;25.90;68.90;;;;;;5091362;28;20535;-88
2022/07/19 05:38:24;;;;;;;2.60;2.40;;;25.90;69.00;;;;;;5094493;28;20475;-87
2022/07/19 05:41:00;;;;;;;3.30;3.00;;;25.90;68.90;;;;;;5085877;28;20932;-83
2022/07/19 05:43:27;;;;;;;5.07;1.80;;;26.00;69.00;;;;;;5076718;28;20565;-85
2022/07/19 05:45:54;;;;;;;4.90;2.07;;;25.90;68.80;;;;;;5085605;28;20550;-83
2022/07/19 05:48:21;;;;;;;2.47;2.27;;;25.90;68.40;;;;;;5094340;28;20574;-87
2022/07/19 05:50:48;;;;;;;3.43;1.87;;;25.90;68.30;;;;;;5095028;28;20463;-88
2022/07/19 05:53:17;;;;;;;4.40;2.50;;;25.90;68.30;;;;;;5094327;28;20499;-87
2022/07/19 05:55:44;;;;;;;2.00;1.90;;;25.90;68.40;;;;;;5094388;28;20811;-87
2022/07/19 05:58:12;;;;;;;3.23;2.93;;;25.90;68.40;;;;;;5094410;28;20467;-87
2022/07/19 06:01:17;;;;;;;3.00;2.77;;;25.90;68.40;;;;;;5094029;28;20452;-87
2022/07/19 06:03:26;;;;;;;2.40;1.97;;;25.90;68.40;;;;;;5093803;28;20432;-88
2022/07/19 06:05:53;;;;;;;3.93;2.47;;;25.90;68.40;;;;;;5076023;28;20479;-87
2022/07/19 06:08:20;;;;;;;2.77;2.57;;;25.90;68.40;;;;;;5094780;28;20468;-87
2022/07/19 06:10:47;;;;;;;5.03;2.80;;;26.00;68.50;;;;;;5094192;28;20472;-84
2022/07/19 06:13:15;;;;;;;2.40;2.20;;;25.90;68.50;;;;;;5093715;28;20555;-81
2022/07/19 06:15:42;;;;;;;2.20;2.00;;;25.90;68.50;;;;;;5093604;28;21020;-82
2022/07/19 06:18:09;;;;;;;4.13;1.97;;;25.90;68.40;;;;;;5093784;28;20436;-81
2022/07/19 06:20:36;;;;;;;2.90;2.17;;;25.90;68.10;;;;;;5093667;28;21026;-81
2022/07/19 06:23:03;;;;;;;2.67;2.10;;;25.90;68.00;;;;;;5093554;28;20442;-80
2022/07/19 06:25:30;;;;;;;2.20;2.03;;;25.90;68.10;;;;;;5093739;28;20451;-82
2022/07/19 06:27:57;;;;;;;2.10;2.00;;;25.90;68.10;;;;;;5093630;28;20442;-80
2022/07/19 06:30:25;;;;;;;2.33;2.13;;;25.90;68.00;;;;;;5093629;28;20431;-80
2022/07/19 06:32:52;;;;;;;2.10;2.00;;;25.90;68.00;;;;;;5093702;28;20926;-85
2022/07/19 06:35:19;;;;;;;2.23;2.03;;;25.90;69.00;;;;;;5093517;28;20475;-81
2022/07/19 06:37:46;;;;;;;2.43;2.23;;;25.90;68.10;;;;;;5093677;28;20436;-85
2022/07/19 06:40:13;;;;;;;1.90;1.80;;;25.90;68.10;;;;;;5093308;28;20436;-81
2022/07/19 06:42:40;;;;;;;2.43;2.20;;;26.00;68.20;;;;;;5093564;28;20432;-80
2022/07/19 06:45:07;;;;;;;2.30;2.20;;;26.00;68.30;;;;;;5093107;28;20478;-82
2022/07/19 06:47:36;;;;;;;2.80;2.57;;;26.00;68.30;;;;;;5093085;28;20429;-81
2022/07/19 06:50:03;;;;;;;3.03;2.13;;;25.90;68.10;;;;;;5092423;28;20498;-80
2022/07/19 06:52:30;;;;;;;2.00;1.90;;;25.90;68.20;;;;;;5092927;28;20483;-81
2022/07/19 06:54:57;;;;;;;3.10;1.90;;;26.00;68.40;;;;;;5093194;28;20530;-80
2022/07/19 06:57:24;;;;;;;2.70;2.50;;;26.00;68.40;;;;;;5093548;28;20442;-81
2022/07/19 06:59:51;;;;;;;3.47;2.30;;;26.00;68.40;;;;;;5093248;28;20450;-80
2022/07/19 07:02:18;;;;;;;3.00;2.13;;;25.90;68.30;;;;;;5093197;28;20448;-86
2022/07/19 07:04:46;;;;;;;2.07;1.90;;;26.00;68.50;;;;;;5093611;28;20519;-83
2022/07/19 07:07:13;;;;;;;2.40;1.70;;;26.00;68.40;;;;;;5093226;28;20440;-81
2022/07/19 07:09:40;;;;;;;3.00;2.20;;;26.00;68.50;;;;;;5093011;28;20489;-80
2022/07/19 07:12:08;;;;;;;3.17;1.93;;;25.90;68.40;;;;;;5093158;28;20476;-80
2022/07/19 07:14:35;;;;;;;2.93;2.20;;;26.00;68.50;;;;;;5093274;28;20989;-81
2022/07/19 07:17:02;;;;;;;3.17;2.20;;;26.00;68.50;;;;;;5093145;28;20478;-80
2022/07/19 07:19:29;;;;;;;2.10;2.00;;;26.00;68.50;;;;;;5093370;28;20854;-80
2022/07/19 07:21:59;;;;;;;3.10;2.03;;;26.00;68.60;;;;;;5093024;28;20440;-81
2022/07/19 07:24:26;;;;;;;2.33;2.00;;;26.00;68.60;;;;;;5093107;28;20440;-81
2022/07/19 07:26:53;;;;;;;2.07;1.87;;;25.90;68.50;;;;;;5092909;28;20432;-80
2022/07/19 07:29:20;;;;;;;1.73;1.63;;;26.00;68.50;;;;;;5092806;28;20479;-81
2022/07/19 07:31:47;;;;;;;5.40;2.03;;;26.00;68.30;;;;;;5092751;28;20984;-81
2022/07/19 07:34:14;;;;;;;2.20;2.03;;;25.90;68.30;;;;;;5093121;28;20497;-81
2022/07/19 07:36:41;;;;;;;5.30;1.97;;;26.00;68.40;;;;;;5095991;28;20527;-82
2022/07/19 07:39:10;;;;;;;9.73;2.90;;;26.00;68.50;;;;;;5096500;28;20438;-80
2022/07/19 07:41:37;;;;;;;2.90;2.33;;;26.00;68.50;;;;;;5096492;28;20785;-81
2022/07/19 07:44:04;;;;;;;2.17;1.97;;;26.00;68.50;;;;;;5096564;28;20462;-81
2022/07/19 07:46:31;;;;;;;3.17;1.90;;;25.90;68.40;;;;;;5096571;28;20452;-81
2022/07/19 07:48:59;;;;;;;1.93;1.73;;;26.00;68.50;;;;;;5096573;28;20555;-81
2022/07/19 07:51:26;;;;;;;2.57;2.00;;;26.00;68.40;;;;;;5096218;28;20555;-81
2022/07/19 07:53:52;;;;;;;4.00;2.50;;;26.00;68.30;;;;;;5096291;28;20442;-81
2022/07/19 07:56:21;;;;;;;2.40;1.90;;;26.00;68.20;;;;;;5096267;28;20479;-81
2022/07/19 07:58:47;;;;;;;1.87;1.77;;;26.00;68.10;;;;;;5096326;28;20432;-80
2022/07/19 08:01:15;;;;;;;2.60;2.13;;;26.00;68.10;;;;;;5096240;28;20432;-81
2022/07/19 08:03:42;;;;;;;2.57;2.10;;;26.00;68.10;;;;;;5096173;28;20440;-80
2022/07/19 08:06:10;;;;;;;2.27;2.10;;;26.00;68.00;;;;;;5096458;28;20440;-80
2022/07/19 08:08:37;;;;;;;2.00;1.90;;;26.00;67.90;;;;;;5096150;28;20448;-81
2022/07/19 08:11:05;;;;;;;2.33;1.87;;;26.00;67.90;;;;;;5096169;28;20548;-81
2022/07/19 08:13:33;;;;;;;2.30;2.10;;;26.00;67.90;;;;;;5095945;28;20464;-82
2022/07/19 08:16:00;;;;;;;2.07;1.83;;;26.00;67.90;;;;;;5095918;28;21089;-84
2022/07/19 08:18:27;;;;;;;1.90;1.80;;;26.00;67.90;;;;;;5096152;28;20919;-80
2022/07/19 08:20:54;;;;;;;2.30;1.70;;;26.00;67.70;;;;;;5095818;28;20468;-80
2022/07/19 08:23:21;;;;;;;2.17;1.97;;;26.00;67.70;;;;;;5095862;28;20522;-81
2022/07/19 08:25:47;;;;;;;2.07;1.87;;;26.00;67.70;;;;;;5096133;28;20530;-80
2022/07/19 08:28:14;;;;;;;2.33;2.00;;;26.00;67.60;;;;;;5096057;28;20535;-81
2022/07/19 08:30:43;;;;;;;2.30;2.10;;;26.00;67.60;;;;;;5095908;28;20512;-80
2022/07/19 08:33:09;;;;;;;2.77;1.90;;;26.00;67.60;;;;;;5095742;28;20852;-80
2022/07/19 08:35:37;;;;;;;2.20;2.00;;;26.00;67.60;;;;;;5095666;28;20475;-80
2022/07/19 08:38:04;;;;;;;2.20;1.60;;;26.00;67.50;;;;;;5095725;28;20519;-80
2022/07/19 08:40:35;;;;;;;2.70;1.80;;;26.00;67.50;;;;;;5095586;28;20534;-87
2022/07/19 08:43:05;;;;;;;2.70;1.70;;;26.00;67.50;;;;;;5095378;28;20459;-81
2022/07/19 08:45:32;;;;;;;2.13;1.50;;;26.00;67.40;;;;;;5095415;28;20460;-81
2022/07/19 08:48:01;;;;;;;2.17;1.90;;;26.00;67.50;;;;;;5094415;28;20440;-84
2022/07/19 08:50:29;;;;;;;1.70;1.60;;;26.00;67.40;;;;;;5095361;28;20578;-81
2022/07/19 08:52:59;;;;;;;1.80;1.70;;;26.00;67.40;;;;;;5095152;28;20521;-81
2022/07/19 08:55:26;;;;;;;1.77;1.67;;;26.00;68.20;;;;;;5095554;28;20501;-81
2022/07/19 08:57:57;;;;;;;2.40;1.67;;;26.00;67.20;;;;;;5095225;28;20914;-81
2022/07/19 09:00:25;;;;;;;1.77;1.63;;;26.00;67.20;;;;;;5095246;28;20455;-81
2022/07/19 09:02:54;;;;;;;2.03;1.83;;;26.00;67.20;;;;;;5095107;28;20527;-80
2022/07/19 09:05:23;;;;;;;1.97;1.87;;;26.00;67.20;;;;;;5095175;28;20845;-81
2022/07/19 09:08:08;;;;;;;1.83;1.73;;;26.00;67.10;;;;;;5095272;28;20429;-81
2022/07/19 09:10:37;;;;;;;1.87;1.70;;;26.10;67.10;;;;;;5094834;28;20479;-81
2022/07/19 09:13:07;;;;;;;1.87;1.77;;;26.00;67.00;;;;;;5094911;28;20480;-81
2022/07/19 09:15:43;;;;;;;1.70;1.60;;;26.00;67.00;;;;;;5095272;28;20868;-81
2022/07/19 09:18:12;;;;;;;1.50;1.40;;;26.00;67.00;;;;;;5094709;28;20519;-81
2022/07/19 09:20:41;;;;;;;1.60;1.50;;;26.00;67.00;;;;;;5094735;28;20523;-81
2022/07/19 09:23:08;;;;;;;1.90;1.70;;;26.00;67.00;;;;;;5094753;28;20527;-87
2022/07/19 09:25:37;;;;;;;1.63;1.53;;;26.00;66.80;;;;;;5094675;28;20538;-81
2022/07/19 09:28:04;;;;;;;2.10;1.67;;;26.00;66.80;;;;;;5094579;28;20449;-81
2022/07/19 09:30:37;;;;;;;1.77;1.67;;;26.00;66.80;;;;;;5094511;28;20574;-81
2022/07/19 09:33:14;;;;;;;1.60;1.50;;;26.10;66.80;;;;;;5094512;28;20804;-81
2022/07/19 09:35:47;;;;;;;2.10;2.00;;;26.00;66.70;;;;;;5094435;28;20836;-80
2022/07/19 09:38:19;;;;;;;2.07;1.80;;;26.00;66.70;;;;;;5094457;28;20538;-87
2022/07/19 09:40:47;;;;;;;2.13;1.90;;;26.00;66.60;;;;;;5094365;28;20438;-81
2022/07/19 09:43:13;;;;;;;2.03;1.93;;;26.00;66.60;;;;;;5094186;28;20439;-81
2022/07/19 09:45:40;;;;;;;1.50;1.40;;;26.00;66.60;;;;;;5094094;28;20884;-80
2022/07/19 09:48:07;;;;;;;1.93;1.83;;;26.00;66.60;;;;;;5094144;28;20531;-81
2022/07/19 09:50:34;;;;;;;3.13;1.63;;;26.00;66.60;;;;;;5093822;28;20484;-82
2022/07/19 09:53:05;;;;;;;2.10;2.00;;;26.10;66.60;;;;;;5093902;28;20511;-85
2022/07/19 09:55:32;;;;;;;1.83;1.70;;;26.10;66.60;;;;;;5094294;28;20436;-87
2022/07/19 09:58:01;;;;;;;1.50;1.40;;;26.00;66.60;;;;;;5094178;28;21012;-85
2022/07/19 10:00:28;;;;;;;1.93;1.80;;;26.10;66.50;;;;;;5093920;28;20473;-85
2022/07/19 10:02:58;;;;;;;2.50;1.50;;;26.10;66.70;;;;;;5094069;28;20532;-85
2022/07/19 10:05:26;;;;;;;1.60;1.50;;;26.10;66.80;;;;;;5093978;28;20444;-85
2022/07/19 10:07:54;;;;;;;1.80;1.70;;;26.10;66.60;;;;;;5094132;28;20444;-85
2022/07/19 10:10:24;;;;;;;1.90;1.70;;;26.10;66.60;;;;;;5094268;28;20483;-85
2022/07/19 10:12:52;;;;;;;2.20;2.07;;;26.10;66.60;;;;;;5094705;28;20919;-85
2022/07/19 10:15:19;;;;;;;1.77;1.57;;;26.10;66.60;;;;;;5093887;28;20464;-85
2022/07/19 10:18:04;;;;;;;1.97;1.50;;;26.10;66.60;;;;;;5094305;28;20438;-87
2022/07/19 10:20:31;;;;;;;1.60;1.50;;;26.10;66.60;;;;;;5094161;28;20519;-88
2022/07/19 10:23:00;;;;;;;1.50;1.40;;;26.10;66.60;;;;;;5093950;28;20527;-85
2022/07/19 10:25:39;;;;;;;1.73;1.53;;;26.10;66.60;;;;;;5093647;28;20447;-84
2022/07/19 10:28:06;;;;;;;3.10;1.50;;;26.10;66.50;;;;;;5093763;28;20531;-85
2022/07/19 10:30:41;;;;;;;1.70;1.57;;;26.10;66.50;;;;;;5093673;28;20673;-85
2022/07/19 10:33:30;;;;;;;1.80;1.60;;;26.10;66.40;;;;;;5093564;28;20431;-85
2022/07/19 10:35:57;;;;;;;1.63;1.53;;;26.10;66.40;;;;;;5093820;28;20444;-85
2022/07/19 10:38:24;;;;;;;2.80;1.37;;;26.10;66.50;;;;;;5093817;28;20440;-85
2022/07/19 10:40:56;;;;;;;2.00;1.87;;;26.10;66.50;;;;;;5093488;28;20468;-85
2022/07/19 10:43:24;;;;;;;1.60;1.50;;;26.10;66.40;;;;;;5093550;28;20444;-85
2022/07/19 10:46:12;;;;;;;2.00;1.80;;;26.10;66.40;;;;;;5093620;28;20497;-85
2022/07/19 10:48:40;;;;;;;1.87;1.40;;;26.10;66.30;;;;;;5093691;28;20428;-85
2022/07/19 10:51:08;;;;;;;1.87;1.77;;;26.10;66.40;;;;;;5093238;28;20575;-85
2022/07/19 10:54:06;;;;;;;1.93;1.77;;;26.10;66.40;;;;;;5093405;28;20493;-85
2022/07/19 10:56:43;;;;;;;1.77;1.23;;;26.10;66.20;;;;;;5093446;28;20440;-85
2022/07/19 10:59:11;;;;;;;2.70;1.67;;;26.10;66.40;;;;;;5093602;28;20523;-84
2022/07/19 11:01:53;;;;;;;1.90;1.63;;;26.10;67.30;;;;;;5093354;28;20847;-85
2022/07/19 11:04:42;;;;;;;1.80;1.70;;;26.10;66.40;;;;;;5093927;28;20442;-88
2022/07/19 11:07:14;;;;;;;1.57;1.47;;;26.10;66.30;;;;;;5093548;28;20523;-85
2022/07/19 11:09:43;;;;;;;1.77;1.67;;;26.10;66.40;;;;;;5093766;28;20475;-85
2022/07/19 11:12:33;;;;;;;1.70;1.50;;;26.10;66.30;;;;;;5097364;28;20471;-85
2022/07/19 11:15:02;;;;;;;1.60;1.50;;;26.20;67.20;;;;;;5097452;28;20452;-87
2022/07/19 11:17:29;;;;;;;1.60;1.50;;;26.10;66.40;;;;;;5097400;28;20850;-85
2022/07/19 11:20:01;;;;;;;1.40;1.30;;;26.10;66.30;;;;;;5097119;28;20446;-84
2022/07/19 11:22:34;;;;;;;1.50;1.40;;;26.10;66.30;;;;;;5097138;28;20788;-85
2022/07/19 11:25:01;;;;;;;1.87;1.13;;;26.10;66.30;;;;;;5097424;28;20446;-85
2022/07/19 11:27:30;;;;;;;1.43;1.33;;;26.10;66.20;;;;;;5097174;28;20526;-85
2022/07/19 11:29:58;;;;;;;1.50;1.40;;;26.10;66.20;;;;;;5096971;28;20482;-84
2022/07/19 11:32:25;;;;;;;1.33;1.23;;;26.10;66.30;;;;;;5096929;28;20539;-85
2022/07/19 11:35:00;;;;;;;1.80;1.70;;;26.10;66.20;;;;;;5097082;28;20435;-84
2022/07/19 11:37:28;;;;;;;1.60;1.50;;;26.20;66.40;;;;;;5096884;28;20530;-84
2022/07/19 11:39:57;;;;;;;1.67;1.57;;;26.20;66.40;;;;;;5096994;28;21006;-84
2022/07/19 11:42:37;;;;;;;1.90;1.80;;;26.20;66.30;;;;;;5096967;28;20521;-84
2022/07/19 11:45:12;;;;;;;1.87;1.70;;;26.20;66.30;;;;;;5096907;28;20543;-86
2022/07/19 11:47:42;;;;;;;1.50;1.40;;;26.20;66.40;;;;;;5096689;28;20543;-87
2022/07/19 11:50:11;;;;;;;1.77;1.50;;;26.10;66.30;;;;;;5096685;28;21016;-85
2022/07/19 11:52:49;;;;;;;1.87;1.77;;;26.10;66.30;;;;;;5096335;28;20555;-84
2022/07/19 11:55:20;;;;;;;1.70;1.50;;;26.20;66.30;;;;;;5096542;28;20462;-84
2022/07/19 11:57:49;;;;;;;1.43;1.33;;;26.20;66.40;;;;;;5096668;28;20540;-85
2022/07/19 12:00:17;;;;;;;1.70;1.50;;;26.20;66.40;;;;;;5096684;28;20468;-84
2022/07/19 12:02:52;;;;;;;9.43;2.17;;;26.20;66.40;;;;;;5096297;28;20482;-85
2022/07/19 12:05:19;;;;;;;1.40;1.30;;;26.20;66.40;;;;;;5096623;28;20435;-84
2022/07/19 12:07:47;;;;;;;1.40;1.30;;;26.20;66.30;;;;;;5096636;28;20872;-84
2022/07/19 12:10:36;;;;;;;2.07;1.50;;;26.20;66.40;;;;;;5096272;28;20569;-85
2022/07/19 12:13:06;;;;;;;2.20;1.87;;;26.20;66.30;;;;;;5096497;28;20459;-85
2022/07/19 12:15:50;;;;;;;1.60;1.13;;;26.20;67.20;;;;;;5096160;28;20452;-90
2022/07/19 12:18:20;;;;;;;1.60;1.50;;;26.20;66.30;;;;;;5096054;28;20464;-85
2022/07/19 12:21:16;;;;;;;1.73;1.53;;;26.20;66.50;;;;;;5094724;28;20447;-82
2022/07/19 12:24:04;;;;;;;2.00;1.60;;;26.20;66.30;;;;;;5095758;28;20455;-82
2022/07/19 12:26:30;;;;;;;1.57;1.47;;;26.20;66.50;;;;;;5095217;28;20446;-89
2022/07/19 12:28:59;;;;;;;1.70;1.53;;;26.20;66.40;;;;;;5095776;28;20444;-82
2022/07/19 12:31:26;;;;;;;1.60;1.50;;;26.20;66.40;;;;;;5095609;28;20487;-82
2022/07/19 12:33:59;;;;;;;1.77;1.67;;;26.20;66.50;;;;;;5094704;28;21050;-82
2022/07/19 12:36:35;;;;;;;1.70;1.60;;;26.20;66.40;;;;;;5094976;28;20436;-82
2022/07/19 12:39:03;;;;;;;1.70;1.60;;;26.20;66.30;;;;;;5094315;28;20999;-82
2022/07/19 12:41:30;;;;;;;1.73;1.37;;;26.20;66.40;;;;;;5094727;28;20820;-88
2022/07/19 12:43:57;;;;;;;1.53;1.30;;;26.20;66.40;;;;;;5094269;28;20463;-82
2022/07/19 12:46:25;;;;;;;1.67;1.57;;;26.20;66.40;;;;;;5094498;28;20531;-83
2022/07/19 12:48:52;;;;;;;1.50;1.40;;;26.20;66.30;;;;;;5095281;28;20440;-87
2022/07/19 12:51:19;;;;;;;1.50;1.40;;;26.20;66.30;;;;;;5099404;28;20495;-87
2022/07/19 12:53:46;;;;;;;1.57;1.10;;;26.20;66.40;;;;;;5096140;28;20448;-87
2022/07/19 12:56:13;;;;;;;3.23;1.67;;;26.20;66.40;;;;;;5095456;28;20439;-87